createdAt,value
2022-09-21T00:04:51.760Z,99021.91
2022-09-21T00:09:56.389Z,99011.53
2022-09-21T00:14:58.629Z,99016.72
2022-09-21T00:20:05.622Z,99012.34
2022-09-21T00:25:09.388Z,99014.13
2022-09-21T00:30:11.734Z,99011.69
2022-09-21T00:35:13.588Z,99023.84
2022-09-21T00:40:15.388Z,99023.03
2022-09-21T00:45:23.033Z,99027.41
2022-09-21T00:50:25.515Z,99023.16
2022-09-21T00:55:34.809Z,99024.00
2022-09-21T01:00:37.763Z,99024.13
2022-09-21T01:05:39.781Z,99024.13
2022-09-21T01:10:58.705Z,99021.53
2022-09-21T01:16:19.152Z,99031.25
2022-09-21T01:21:24.658Z,99032.22
2022-09-21T01:27:00.515Z,99035.47
2022-09-21T01:32:37.392Z,99035.78
2022-09-21T01:37:51.061Z,99035.09
2022-09-21T01:42:56.636Z,99042.50
2022-09-21T01:48:01.135Z,99042.78
2022-09-21T01:53:13.862Z,99042.94
2022-09-21T01:58:24.628Z,99039.81
2022-09-21T02:03:37.250Z,99050.47
2022-09-21T02:08:39.503Z,99042.31
2022-09-21T02:13:45.911Z,99043.41
2022-09-21T02:19:11.358Z,99054.91
2022-09-21T02:24:25.324Z,99052.44
2022-09-21T02:29:44.754Z,99056.13
2022-09-21T02:34:53.082Z,99060.50
2022-09-21T02:40:22.588Z,99060.66
2022-09-21T02:45:34.353Z,99055.47
2022-09-21T02:51:03.670Z,99061.34
2022-09-21T02:56:08.972Z,99063.09
2022-09-21T03:01:13.650Z,99069.41
2022-09-21T03:06:15.484Z,99080.75
2022-09-21T03:11:18.740Z,99077.31
2022-09-21T03:16:21.625Z,99080.06
2022-09-21T03:21:23.533Z,99086.88
2022-09-21T03:26:25.533Z,99084.16
2022-09-21T03:31:27.425Z,99086.59
2022-09-21T03:36:29.277Z,99077.88
2022-09-21T03:41:31.099Z,99084.00
2022-09-21T03:46:35.451Z,99078.16
2022-09-21T03:51:38.410Z,99084.28
2022-09-21T03:56:40.429Z,99089.47
2022-09-21T04:01:42.812Z,99091.25
2022-09-21T04:06:46.310Z,99090.44
2022-09-21T04:11:48.310Z,99091.25
2022-09-21T04:16:52.353Z,99093.84
2022-09-21T04:21:56.338Z,99098.91
2022-09-21T04:26:58.214Z,99094.13
2022-09-21T04:32:00.500Z,99103.03
2022-09-21T04:37:02.749Z,99100.59
2022-09-21T04:42:06.102Z,99107.69
2022-09-21T04:47:08.759Z,99103.06
2022-09-21T04:52:10.629Z,99104.44
2022-09-21T04:57:14.479Z,99111.56
2022-09-21T05:07:42.420Z,99132.44
2022-09-21T05:12:44.458Z,99128.22
2022-09-21T05:17:46.926Z,99141.84
2022-09-21T05:22:48.934Z,99141.72
2022-09-21T05:27:50.901Z,99141.44
2022-09-21T05:33:04.566Z,99155.78
2022-09-21T05:38:18.123Z,99157.41
2022-09-21T05:43:20.690Z,99160.81
2022-09-21T05:48:37.001Z,99166.69
2022-09-21T05:53:57.015Z,99163.00
2022-09-21T05:59:09.558Z,99169.97
2022-09-21T06:04:13.047Z,99180.84
2022-09-21T06:09:15.000Z,99177.16
2022-09-21T06:14:16.916Z,99177.84
2022-09-21T06:19:18.882Z,99189.03
2022-09-21T06:24:21.912Z,99179.34
2022-09-21T06:29:25.166Z,99182.34
2022-09-21T06:34:27.036Z,99179.47
2022-09-21T06:39:28.842Z,99186.28
2022-09-21T06:44:31.018Z,99192.84
2022-09-21T06:49:32.833Z,99184.34
2022-09-21T06:54:34.807Z,99186.38
2022-09-21T06:59:36.744Z,99191.16
2022-09-21T07:04:38.626Z,99191.00
2022-09-21T07:15:04.323Z,99198.63
2022-09-21T07:20:08.437Z,99203.78
2022-09-21T07:25:10.741Z,99208.69
2022-09-21T07:30:12.722Z,99214.44
2022-09-21T07:35:14.603Z,99217.41
2022-09-21T07:40:16.737Z,99219.59
2022-09-21T07:45:19.185Z,99222.81
2022-09-21T07:50:21.964Z,99220.47
2022-09-21T07:55:23.828Z,99229.47
2022-09-21T08:00:25.853Z,99225.34
2022-09-21T08:05:27.767Z,99223.13
2022-09-21T08:10:32.075Z,99227.34
2022-09-21T08:15:50.409Z,99220.22
2022-09-21T08:21:00.197Z,99223.59
2022-09-21T08:26:05.631Z,99220.56
2022-09-21T08:31:09.822Z,99219.03
2022-09-21T08:36:11.898Z,99222.16
2022-09-21T08:41:24.672Z,99223.97
2022-09-21T08:46:31.655Z,99230.28
2022-09-21T08:51:38.476Z,99231.31
2022-09-21T08:57:01.024Z,99229.53
2022-09-21T09:02:05.740Z,99229.06
2022-09-21T09:07:28.613Z,99234.41
2022-09-21T09:12:45.843Z,99232.44
2022-09-21T09:18:06.292Z,99239.47
2022-09-21T09:23:21.764Z,99233.69
2022-09-21T09:28:33.348Z,99229.31
2022-09-21T09:33:53.078Z,99225.22
2022-09-21T09:39:05.520Z,99232.56
2022-09-21T09:44:41.006Z,99227.22
2022-09-21T09:50:06.173Z,99222.47
2022-09-21T09:55:20.998Z,99220.91
2022-09-21T10:00:23.042Z,99225.28
2022-09-21T10:05:32.896Z,99223.81
2022-09-21T10:10:34.842Z,99221.56
2022-09-21T10:15:43.171Z,99219.47
2022-09-21T10:20:55.806Z,99215.22
2022-09-21T10:26:06.614Z,99218.75
2022-09-21T10:31:17.652Z,99218.22
2022-09-21T10:36:35.274Z,99217.03
2022-09-21T10:41:37.850Z,99207.19
2022-09-21T10:46:39.791Z,99211.09
2022-09-21T10:51:46.750Z,99204.59
2022-09-21T10:57:04.343Z,99210.59
2022-09-21T11:02:34.809Z,99205.50
2022-09-21T11:07:39.407Z,99208.56
2022-09-21T11:12:44.131Z,99200.97
2022-09-21T11:17:57.371Z,99195.94
2022-09-21T11:23:14.097Z,99190.41
2022-09-21T11:28:43.391Z,99191.56
2022-09-21T11:34:16.677Z,99190.41
2022-09-21T11:39:48.266Z,99188.09
2022-09-21T11:44:58.436Z,99189.56
2022-09-21T11:50:29.148Z,99172.13
2022-09-21T11:55:55.653Z,99172.78
2022-09-21T12:01:36.242Z,99177.69
2022-09-21T12:07:16.114Z,99171.31
2022-09-21T12:12:24.946Z,99161.53
2022-09-21T12:17:34.485Z,99161.38
2022-09-21T12:22:41.320Z,99163.16
2022-09-21T12:27:55.028Z,99158.44
2022-09-21T12:33:08.551Z,99152.53
2022-09-21T12:38:36.468Z,99151.41
2022-09-21T12:43:57.763Z,99146.03
2022-09-21T12:49:03.263Z,99143.75
2022-09-21T12:54:17.590Z,99137.38
2022-09-21T12:59:38.821Z,99134.78
2022-09-21T13:04:46.332Z,99132.50
2022-09-21T13:09:50.717Z,99134.13
2022-09-21T13:15:04.667Z,99141.78
2022-09-21T13:20:17.703Z,99143.28
2022-09-21T13:25:28.377Z,99144.72
2022-09-21T13:30:35.957Z,99146.19
2022-09-21T13:35:48.037Z,99129.38
2022-09-21T13:41:17.480Z,99133.59
2022-09-21T13:46:37.209Z,99123.50
2022-09-21T13:52:08.663Z,99119.41
2022-09-21T13:57:28.696Z,99120.41
2022-09-21T14:02:39.700Z,99114.03
2022-09-21T14:07:41.673Z,99110.44
2022-09-21T14:12:45.541Z,99109.78
2022-09-21T14:18:15.786Z,99108.31
2022-09-21T14:23:24.130Z,99109.09
2022-09-21T14:28:35.226Z,99112.84
2022-09-21T14:33:55.175Z,99107.50
2022-09-21T14:39:03.111Z,99103.91
2022-09-21T14:44:04.957Z,99108.81
2022-09-21T14:49:48.524Z,99108.81
2022-09-21T14:54:57.325Z,99109.00
2022-09-21T15:00:23.470Z,99111.28
2022-09-21T15:05:43.784Z,99114.38
2022-09-21T15:10:57.711Z,99117.81
2022-09-21T15:16:24.121Z,99110.47
2022-09-21T15:21:33.003Z,99106.56
2022-09-21T15:26:34.762Z,99110.47
2022-09-21T15:31:39.381Z,99109.19
2022-09-21T15:36:42.862Z,99099.88
2022-09-21T15:41:48.123Z,99097.44
2022-09-21T15:47:00.433Z,99100.22
2022-09-21T15:52:14.047Z,99104.63
2022-09-21T15:57:43.019Z,99102.00
2022-09-21T16:03:07.011Z,99108.84
2022-09-21T16:08:34.825Z,99107.22
2022-09-21T16:13:59.156Z,99100.38
2022-09-21T16:19:01.067Z,99100.22
2022-09-21T16:24:18.709Z,99108.19
2022-09-21T16:29:25.626Z,99111.28
2022-09-21T16:34:35.341Z,99111.13
2022-09-21T16:39:37.178Z,99100.69
2022-09-21T16:44:44.683Z,99106.06
2022-09-21T16:49:46.445Z,99108.81
2022-09-21T16:54:49.873Z,99114.00
2022-09-21T16:59:52.477Z,99114.97
2022-09-21T17:04:54.297Z,99114.94
2022-09-21T17:09:56.144Z,99121.75
2022-09-21T17:14:59.452Z,99130.03
2022-09-21T17:20:07.173Z,99121.84
2022-09-21T17:25:09.365Z,99125.09
2022-09-21T17:30:13.335Z,99116.13
2022-09-21T17:35:38.906Z,99120.00
2022-09-21T17:40:41.236Z,99120.31
2022-09-21T17:46:04.841Z,99125.84
2022-09-21T17:51:07.262Z,99133.00
2022-09-21T17:56:32.853Z,99131.38
2022-09-21T18:01:40.183Z,99137.69
2022-09-21T18:06:42.377Z,99136.38
2022-09-21T18:11:47.584Z,99142.03
2022-09-21T18:16:59.341Z,99139.09
2022-09-21T18:22:22.897Z,99133.84
2022-09-21T18:27:24.992Z,99158.69
2022-09-21T18:32:52.605Z,99158.84
2022-09-21T18:38:31.925Z,99162.41
2022-09-21T18:43:57.926Z,99159.97
2022-09-21T18:49:12.168Z,99163.84
2022-09-21T18:54:23.405Z,99164.00
2022-09-21T18:59:29.606Z,99163.34
2022-09-21T19:04:34.026Z,99161.69
2022-09-21T19:09:51.400Z,99166.41
2022-09-21T19:15:00.833Z,99157.41
2022-09-21T19:20:36.716Z,99159.50
2022-09-21T19:25:49.992Z,99159.28
2022-09-21T19:31:00.463Z,99157.13
2022-09-21T19:36:02.872Z,99155.78
2022-09-21T19:41:06.358Z,99153.66
2022-09-21T19:46:42.205Z,99146.44
2022-09-21T19:51:52.602Z,99151.28
2022-09-21T19:57:13.205Z,99148.97
2022-09-21T20:02:31.910Z,99151.22
2022-09-21T20:07:46.165Z,99156.69
2022-09-21T20:13:05.784Z,99154.41
2022-09-21T20:18:12.196Z,99146.91
2022-09-21T20:23:14.244Z,99156.78
2022-09-21T20:28:16.431Z,99152.66
2022-09-21T20:33:23.286Z,99151.03
2022-09-21T20:38:25.130Z,99156.38
2022-09-21T20:43:32.299Z,99154.88
2022-09-21T20:48:34.435Z,99153.25
2022-09-21T20:53:36.350Z,99150.78
2022-09-21T20:58:38.160Z,99145.88
2022-09-21T21:03:40.016Z,99148.63
2022-09-21T21:08:41.866Z,99146.19
2022-09-21T21:13:43.970Z,99146.34
2022-09-21T21:18:45.976Z,99153.16
2022-09-21T21:24:09.834Z,99145.38
2022-09-21T21:29:11.788Z,99136.59
2022-09-21T21:34:14.134Z,99127.03
2022-09-21T21:39:16.026Z,99125.25
2022-09-21T21:44:17.944Z,99129.47
2022-09-21T21:49:21.065Z,99127.69
2022-09-21T21:54:24.283Z,99126.88
2022-09-21T21:59:26.013Z,99121.53
2022-09-21T22:04:28.110Z,99118.13
2022-09-21T22:09:29.997Z,99114.84
2022-09-21T22:14:31.960Z,99105.25
2022-09-21T22:19:33.708Z,99109.78
2022-09-21T22:24:35.519Z,99108.97
2022-09-21T22:29:37.285Z,99109.78
2022-09-21T22:34:39.542Z,99105.56
2022-09-21T22:39:42.727Z,99107.34
2022-09-21T22:44:44.467Z,99109.13
2022-09-21T22:49:46.577Z,99108.97
2022-09-21T22:54:48.443Z,99107.19
2022-09-21T22:59:50.307Z,99102.16
2022-09-21T23:04:52.181Z,99104.75
2022-09-21T23:09:53.935Z,99097.09
2022-09-21T23:14:55.768Z,99103.25
2022-09-21T23:19:57.503Z,99102.44
2022-09-21T23:24:59.227Z,99106.00
2022-09-21T23:30:04.428Z,99104.38
2022-09-21T23:35:06.352Z,99106.16
2022-09-21T23:40:08.841Z,99095.91
2022-09-21T23:45:10.867Z,99102.75
2022-09-21T23:50:12.682Z,99099.31
2022-09-21T23:55:14.546Z,99103.56
